sensor_id;sensor_type;location;lat;lon;timestamp;P1;durP1;ratioP1;P2;durP2;ratioP2
72275;SDS011;61204;49.980;8.358;2022-07-06T00:01:56;2.35;;;1.45;;
72275;SDS011;61204;49.980;8.358;2022-07-06T00:04:22;2.70;;;1.13;;
72275;SDS011;61204;49.980;8.358;2022-07-06T00:06:47;1.88;;;0.95;;
72275;SDS011;61204;49.980;8.358;2022-07-06T00:09:13;3.03;;;1.00;;
72275;SDS011;61204;49.980;8.358;2022-07-06T00:11:39;3.72;;;1.10;;
72275;SDS011;61204;49.980;8.358;2022-07-06T00:14:05;1.65;;;1.00;;
72275;SDS011;61204;49.980;8.358;2022-07-06T00:16:31;2.35;;;0.90;;
72275;SDS011;61204;49.980;8.358;2022-07-06T00:18:57;1.02;;;0.60;;
72275;SDS011;61204;49.980;8.358;2022-07-06T00:21:23;2.47;;;0.80;;
72275;SDS011;61204;49.980;8.358;2022-07-06T00:23:48;1.90;;;1.00;;
72275;SDS011;61204;49.980;8.358;2022-07-06T00:26:14;2.38;;;0.95;;
72275;SDS011;61204;49.980;8.358;2022-07-06T00:28:39;4.60;;;1.27;;
72275;SDS011;61204;49.980;8.358;2022-07-06T00:31:05;3.13;;;1.20;;
72275;SDS011;61204;49.980;8.358;2022-07-06T00:33:31;1.67;;;1.02;;
72275;SDS011;61204;49.980;8.358;2022-07-06T00:35:57;2.47;;;1.10;;
72275;SDS011;61204;49.980;8.358;2022-07-06T00:38:23;2.30;;;1.25;;
72275;SDS011;61204;49.980;8.358;2022-07-06T00:40:48;1.83;;;1.30;;
72275;SDS011;61204;49.980;8.358;2022-07-06T00:43:14;1.90;;;0.90;;
72275;SDS011;61204;49.980;8.358;2022-07-06T00:45:40;8.20;;;1.20;;
72275;SDS011;61204;49.980;8.358;2022-07-06T00:48:06;1.88;;;0.88;;
72275;SDS011;61204;49.980;8.358;2022-07-06T00:50:32;4.38;;;1.13;;
72275;SDS011;61204;49.980;8.358;2022-07-06T00:53:00;2.95;;;1.00;;
72275;SDS011;61204;49.980;8.358;2022-07-06T00:55:29;1.85;;;1.00;;
72275;SDS011;61204;49.980;8.358;2022-07-06T00:58:03;3.92;;;1.10;;
72275;SDS011;61204;49.980;8.358;2022-07-06T01:00:30;1.77;;;1.10;;
72275;SDS011;61204;49.980;8.358;2022-07-06T01:02:57;3.55;;;1.25;;
72275;SDS011;61204;49.980;8.358;2022-07-06T01:05:23;1.20;;;0.60;;
72275;SDS011;61204;49.980;8.358;2022-07-06T01:07:49;1.95;;;1.20;;
72275;SDS011;61204;49.980;8.358;2022-07-06T01:10:18;3.00;;;1.23;;
72275;SDS011;61204;49.980;8.358;2022-07-06T01:12:47;4.38;;;1.20;;
72275;SDS011;61204;49.980;8.358;2022-07-06T01:15:18;3.10;;;1.15;;
72275;SDS011;61204;49.980;8.358;2022-07-06T01:17:48;2.05;;;0.98;;
72275;SDS011;61204;49.980;8.358;2022-07-06T01:20:22;1.60;;;0.90;;
72275;SDS011;61204;49.980;8.358;2022-07-06T01:22:51;1.70;;;0.93;;
72275;SDS011;61204;49.980;8.358;2022-07-06T01:25:20;2.35;;;1.10;;
72275;SDS011;61204;49.980;8.358;2022-07-06T01:27:46;2.47;;;1.17;;
72275;SDS011;61204;49.980;8.358;2022-07-06T01:30:14;2.75;;;1.02;;
72275;SDS011;61204;49.980;8.358;2022-07-06T01:32:43;2.42;;;1.10;;
72275;SDS011;61204;49.980;8.358;2022-07-06T01:35:10;2.35;;;1.10;;
72275;SDS011;61204;49.980;8.358;2022-07-06T01:37:39;1.38;;;0.93;;
72275;SDS011;61204;49.980;8.358;2022-07-06T01:40:08;2.33;;;1.00;;
72275;SDS011;61204;49.980;8.358;2022-07-06T01:42:37;1.15;;;0.80;;
72275;SDS011;61204;49.980;8.358;2022-07-06T01:45:04;1.67;;;0.90;;
72275;SDS011;61204;49.980;8.358;2022-07-06T01:47:32;1.58;;;0.90;;
72275;SDS011;61204;49.980;8.358;2022-07-06T01:49:58;3.63;;;0.90;;
72275;SDS011;61204;49.980;8.358;2022-07-06T01:52:34;2.08;;;0.80;;
72275;SDS011;61204;49.980;8.358;2022-07-06T01:55:00;1.30;;;0.70;;
72275;SDS011;61204;49.980;8.358;2022-07-06T01:57:25;4.18;;;0.95;;
72275;SDS011;61204;49.980;8.358;2022-07-06T01:59:51;1.17;;;0.70;;
72275;SDS011;61204;49.980;8.358;2022-07-06T02:02:16;3.05;;;0.73;;
72275;SDS011;61204;49.980;8.358;2022-07-06T02:04:42;3.25;;;0.98;;
72275;SDS011;61204;49.980;8.358;2022-07-06T02:07:08;1.13;;;0.77;;
72275;SDS011;61204;49.980;8.358;2022-07-06T02:09:33;0.95;;;0.73;;
72275;SDS011;61204;49.980;8.358;2022-07-06T02:11:59;1.63;;;0.90;;
72275;SDS011;61204;49.980;8.358;2022-07-06T02:14:25;1.70;;;0.85;;
72275;SDS011;61204;49.980;8.358;2022-07-06T02:16:50;1.25;;;0.65;;
72275;SDS011;61204;49.980;8.358;2022-07-06T02:19:16;1.27;;;0.73;;
72275;SDS011;61204;49.980;8.358;2022-07-06T02:21:41;2.08;;;1.00;;
72275;SDS011;61204;49.980;8.358;2022-07-06T02:24:07;3.10;;;0.90;;
72275;SDS011;61204;49.980;8.358;2022-07-06T02:26:32;1.60;;;0.60;;
72275;SDS011;61204;49.980;8.358;2022-07-06T02:28:58;2.15;;;0.77;;
72275;SDS011;61204;49.980;8.358;2022-07-06T02:31:23;1.63;;;0.70;;
72275;SDS011;61204;49.980;8.358;2022-07-06T02:33:49;2.75;;;0.90;;
72275;SDS011;61204;49.980;8.358;2022-07-06T02:36:14;1.55;;;0.90;;
72275;SDS011;61204;49.980;8.358;2022-07-06T02:38:40;1.63;;;0.70;;
72275;SDS011;61204;49.980;8.358;2022-07-06T02:41:06;3.58;;;0.80;;
72275;SDS011;61204;49.980;8.358;2022-07-06T02:43:31;1.60;;;0.85;;
72275;SDS011;61204;49.980;8.358;2022-07-06T02:45:57;1.02;;;0.70;;
72275;SDS011;61204;49.980;8.358;2022-07-06T02:48:22;2.00;;;0.75;;
72275;SDS011;61204;49.980;8.358;2022-07-06T02:50:48;1.58;;;0.82;;
72275;SDS011;61204;49.980;8.358;2022-07-06T02:53:13;2.40;;;1.00;;
72275;SDS011;61204;49.980;8.358;2022-07-06T02:55:39;1.90;;;0.90;;
72275;SDS011;61204;49.980;8.358;2022-07-06T02:58:05;1.83;;;0.88;;
72275;SDS011;61204;49.980;8.358;2022-07-06T03:00:30;2.25;;;0.80;;
72275;SDS011;61204;49.980;8.358;2022-07-06T03:02:56;1.63;;;1.00;;
72275;SDS011;61204;49.980;8.358;2022-07-06T03:05:22;1.40;;;0.73;;
72275;SDS011;61204;49.980;8.358;2022-07-06T03:07:47;1.77;;;0.70;;
72275;SDS011;61204;49.980;8.358;2022-07-06T03:10:13;2.90;;;1.00;;
72275;SDS011;61204;49.980;8.358;2022-07-06T03:12:38;1.65;;;0.70;;
72275;SDS011;61204;49.980;8.358;2022-07-06T03:15:04;8.13;;;0.95;;
72275;SDS011;61204;49.980;8.358;2022-07-06T03:17:31;5.13;;;0.98;;
72275;SDS011;61204;49.980;8.358;2022-07-06T03:19:57;1.80;;;1.02;;
72275;SDS011;61204;49.980;8.358;2022-07-06T03:22:22;1.73;;;0.85;;
72275;SDS011;61204;49.980;8.358;2022-07-06T03:24:48;1.35;;;0.60;;
72275;SDS011;61204;49.980;8.358;2022-07-06T03:27:14;1.92;;;0.80;;
72275;SDS011;61204;49.980;8.358;2022-07-06T03:29:42;2.53;;;0.90;;
72275;SDS011;61204;49.980;8.358;2022-07-06T03:32:07;1.80;;;0.77;;
72275;SDS011;61204;49.980;8.358;2022-07-06T03:34:33;1.65;;;0.90;;
72275;SDS011;61204;49.980;8.358;2022-07-06T03:36:59;1.55;;;0.80;;
72275;SDS011;61204;49.980;8.358;2022-07-06T03:39:24;1.90;;;0.90;;
72275;SDS011;61204;49.980;8.358;2022-07-06T03:41:50;2.35;;;0.90;;
72275;SDS011;61204;49.980;8.358;2022-07-06T03:44:15;2.28;;;0.70;;
72275;SDS011;61204;49.980;8.358;2022-07-06T03:46:41;2.05;;;0.80;;
72275;SDS011;61204;49.980;8.358;2022-07-06T03:49:06;1.30;;;0.70;;
72275;SDS011;61204;49.980;8.358;2022-07-06T03:51:32;1.65;;;0.85;;
72275;SDS011;61204;49.980;8.358;2022-07-06T03:53:57;1.27;;;0.80;;
72275;SDS011;61204;49.980;8.358;2022-07-06T03:56:23;3.03;;;0.90;;
72275;SDS011;61204;49.980;8.358;2022-07-06T03:58:55;1.27;;;0.63;;
72275;SDS011;61204;49.980;8.358;2022-07-06T04:01:23;2.28;;;0.82;;
72275;SDS011;61204;49.980;8.358;2022-07-06T04:03:50;3.30;;;1.05;;
72275;SDS011;61204;49.980;8.358;2022-07-06T04:06:16;3.33;;;1.02;;
72275;SDS011;61204;49.980;8.358;2022-07-06T04:08:42;2.97;;;1.05;;
72275;SDS011;61204;49.980;8.358;2022-07-06T04:11:08;2.72;;;1.10;;
72275;SDS011;61204;49.980;8.358;2022-07-06T04:13:34;3.88;;;1.52;;
72275;SDS011;61204;49.980;8.358;2022-07-06T04:15:59;2.80;;;1.20;;
72275;SDS011;61204;49.980;8.358;2022-07-06T04:18:25;3.50;;;1.65;;
72275;SDS011;61204;49.980;8.358;2022-07-06T04:20:50;5.57;;;0.98;;
72275;SDS011;61204;49.980;8.358;2022-07-06T04:23:17;4.47;;;1.35;;
72275;SDS011;61204;49.980;8.358;2022-07-06T04:25:43;3.70;;;1.30;;
72275;SDS011;61204;49.980;8.358;2022-07-06T04:28:08;2.67;;;1.10;;
72275;SDS011;61204;49.980;8.358;2022-07-06T04:30:34;3.67;;;1.50;;
72275;SDS011;61204;49.980;8.358;2022-07-06T04:33:00;3.60;;;1.20;;
72275;SDS011;61204;49.980;8.358;2022-07-06T04:35:26;6.18;;;1.55;;
72275;SDS011;61204;49.980;8.358;2022-07-06T04:37:52;4.05;;;1.35;;
72275;SDS011;61204;49.980;8.358;2022-07-06T04:40:17;5.35;;;1.58;;
72275;SDS011;61204;49.980;8.358;2022-07-06T04:42:46;2.83;;;1.30;;
72275;SDS011;61204;49.980;8.358;2022-07-06T04:45:13;5.85;;;1.90;;
72275;SDS011;61204;49.980;8.358;2022-07-06T04:47:39;9.65;;;2.03;;
72275;SDS011;61204;49.980;8.358;2022-07-06T04:50:04;4.90;;;1.90;;
72275;SDS011;61204;49.980;8.358;2022-07-06T04:52:31;6.00;;;1.77;;
72275;SDS011;61204;49.980;8.358;2022-07-06T04:54:57;3.88;;;1.45;;
72275;SDS011;61204;49.980;8.358;2022-07-06T04:57:23;2.67;;;1.33;;
72275;SDS011;61204;49.980;8.358;2022-07-06T04:59:51;2.35;;;1.35;;
72275;SDS011;61204;49.980;8.358;2022-07-06T05:02:17;3.85;;;1.50;;
72275;SDS011;61204;49.980;8.358;2022-07-06T05:04:43;3.65;;;1.40;;
72275;SDS011;61204;49.980;8.358;2022-07-06T05:07:08;5.22;;;1.45;;
72275;SDS011;61204;49.980;8.358;2022-07-06T05:09:34;3.15;;;1.80;;
72275;SDS011;61204;49.980;8.358;2022-07-06T05:11:59;3.10;;;1.50;;
72275;SDS011;61204;49.980;8.358;2022-07-06T05:14:25;4.25;;;1.75;;
72275;SDS011;61204;49.980;8.358;2022-07-06T05:16:51;5.80;;;1.90;;
72275;SDS011;61204;49.980;8.358;2022-07-06T05:19:16;4.82;;;1.70;;
72275;SDS011;61204;49.980;8.358;2022-07-06T05:21:42;4.32;;;1.83;;
72275;SDS011;61204;49.980;8.358;2022-07-06T05:24:08;6.72;;;1.92;;
72275;SDS011;61204;49.980;8.358;2022-07-06T05:26:33;4.90;;;1.60;;
72275;SDS011;61204;49.980;8.358;2022-07-06T05:28:59;6.70;;;2.30;;
72275;SDS011;61204;49.980;8.358;2022-07-06T05:31:25;3.30;;;1.50;;
72275;SDS011;61204;49.980;8.358;2022-07-06T05:33:50;4.38;;;1.85;;
72275;SDS011;61204;49.980;8.358;2022-07-06T05:36:16;4.05;;;1.75;;
72275;SDS011;61204;49.980;8.358;2022-07-06T05:38:42;5.47;;;1.98;;
72275;SDS011;61204;49.980;8.358;2022-07-06T05:41:07;4.45;;;2.00;;
72275;SDS011;61204;49.980;8.358;2022-07-06T05:43:35;4.78;;;1.60;;
72275;SDS011;61204;49.980;8.358;2022-07-06T05:46:02;7.43;;;1.95;;
72275;SDS011;61204;49.980;8.358;2022-07-06T05:48:28;4.60;;;1.80;;
72275;SDS011;61204;49.980;8.358;2022-07-06T05:51:13;5.65;;;2.22;;
72275;SDS011;61204;49.980;8.358;2022-07-06T05:53:39;7.65;;;1.90;;
72275;SDS011;61204;49.980;8.358;2022-07-06T05:56:04;3.58;;;2.10;;
72275;SDS011;61204;49.980;8.358;2022-07-06T05:58:30;4.97;;;1.80;;
72275;SDS011;61204;49.980;8.358;2022-07-06T06:00:56;6.63;;;2.00;;
72275;SDS011;61204;49.980;8.358;2022-07-06T06:03:21;3.20;;;2.03;;
72275;SDS011;61204;49.980;8.358;2022-07-06T06:05:47;5.43;;;1.92;;
72275;SDS011;61204;49.980;8.358;2022-07-06T06:08:13;4.97;;;1.90;;
72275;SDS011;61204;49.980;8.358;2022-07-06T06:10:38;3.00;;;1.35;;
72275;SDS011;61204;49.980;8.358;2022-07-06T06:13:04;4.35;;;1.42;;
72275;SDS011;61204;49.980;8.358;2022-07-06T06:15:30;3.40;;;1.55;;
72275;SDS011;61204;49.980;8.358;2022-07-06T06:17:55;3.78;;;1.52;;
72275;SDS011;61204;49.980;8.358;2022-07-06T06:20:21;3.85;;;1.60;;
72275;SDS011;61204;49.980;8.358;2022-07-06T06:22:51;3.53;;;1.55;;
72275;SDS011;61204;49.980;8.358;2022-07-06T06:25:29;5.28;;;1.73;;
72275;SDS011;61204;49.980;8.358;2022-07-06T06:28:05;4.88;;;1.90;;
72275;SDS011;61204;49.980;8.358;2022-07-06T06:30:35;6.40;;;1.60;;
72275;SDS011;61204;49.980;8.358;2022-07-06T06:35:44;4.95;;;1.92;;
72275;SDS011;61204;49.980;8.358;2022-07-06T06:38:20;4.72;;;1.80;;
72275;SDS011;61204;49.980;8.358;2022-07-06T06:40:50;5.68;;;1.90;;
72275;SDS011;61204;49.980;8.358;2022-07-06T06:43:17;5.32;;;1.95;;
72275;SDS011;61204;49.980;8.358;2022-07-06T06:45:43;4.32;;;1.90;;
72275;SDS011;61204;49.980;8.358;2022-07-06T06:48:09;4.22;;;1.67;;
72275;SDS011;61204;49.980;8.358;2022-07-06T06:50:35;2.47;;;1.60;;
72275;SDS011;61204;49.980;8.358;2022-07-06T06:53:03;4.68;;;1.88;;
72275;SDS011;61204;49.980;8.358;2022-07-06T06:55:29;5.57;;;1.60;;
72275;SDS011;61204;49.980;8.358;2022-07-06T06:57:54;8.07;;;1.88;;
72275;SDS011;61204;49.980;8.358;2022-07-06T07:00:20;4.13;;;1.75;;
72275;SDS011;61204;49.980;8.358;2022-07-06T07:02:45;3.13;;;1.48;;
72275;SDS011;61204;49.980;8.358;2022-07-06T07:05:12;4.25;;;1.58;;
72275;SDS011;61204;49.980;8.358;2022-07-06T07:07:37;4.45;;;1.50;;
72275;SDS011;61204;49.980;8.358;2022-07-06T07:10:04;3.25;;;1.50;;
72275;SDS011;61204;49.980;8.358;2022-07-06T07:12:31;4.22;;;1.77;;
72275;SDS011;61204;49.980;8.358;2022-07-06T07:14:58;5.07;;;1.58;;
72275;SDS011;61204;49.980;8.358;2022-07-06T07:17:24;4.57;;;1.90;;
72275;SDS011;61204;49.980;8.358;2022-07-06T07:19:50;3.50;;;1.65;;
72275;SDS011;61204;49.980;8.358;2022-07-06T07:22:15;3.92;;;1.73;;
72275;SDS011;61204;49.980;8.358;2022-07-06T07:24:41;3.80;;;1.67;;
72275;SDS011;61204;49.980;8.358;2022-07-06T07:27:07;3.53;;;1.60;;
72275;SDS011;61204;49.980;8.358;2022-07-06T07:29:32;5.40;;;1.70;;
72275;SDS011;61204;49.980;8.358;2022-07-06T07:31:58;3.20;;;1.60;;
72275;SDS011;61204;49.980;8.358;2022-07-06T07:34:24;3.22;;;1.60;;
72275;SDS011;61204;49.980;8.358;2022-07-06T07:36:49;2.53;;;1.73;;
72275;SDS011;61204;49.980;8.358;2022-07-06T07:39:15;4.53;;;1.65;;
72275;SDS011;61204;49.980;8.358;2022-07-06T07:41:40;2.90;;;1.70;;
72275;SDS011;61204;49.980;8.358;2022-07-06T07:44:06;3.55;;;1.60;;
72275;SDS011;61204;49.980;8.358;2022-07-06T07:46:31;4.25;;;1.55;;
72275;SDS011;61204;49.980;8.358;2022-07-06T07:48:57;3.97;;;1.63;;
72275;SDS011;61204;49.980;8.358;2022-07-06T07:51:22;2.70;;;1.30;;
72275;SDS011;61204;49.980;8.358;2022-07-06T07:53:48;3.22;;;1.73;;
72275;SDS011;61204;49.980;8.358;2022-07-06T07:56:14;2.83;;;1.42;;
72275;SDS011;61204;49.980;8.358;2022-07-06T07:58:39;2.78;;;1.10;;
72275;SDS011;61204;49.980;8.358;2022-07-06T08:01:05;3.08;;;1.70;;
72275;SDS011;61204;49.980;8.358;2022-07-06T08:03:30;1.92;;;1.60;;
72275;SDS011;61204;49.980;8.358;2022-07-06T08:05:56;4.53;;;1.42;;
72275;SDS011;61204;49.980;8.358;2022-07-06T08:08:23;2.67;;;1.10;;
72275;SDS011;61204;49.980;8.358;2022-07-06T08:10:50;5.13;;;1.27;;
72275;SDS011;61204;49.980;8.358;2022-07-06T08:13:15;2.35;;;1.10;;
72275;SDS011;61204;49.980;8.358;2022-07-06T08:15:41;3.05;;;1.10;;
72275;SDS011;61204;49.980;8.358;2022-07-06T08:18:07;4.65;;;1.40;;
72275;SDS011;61204;49.980;8.358;2022-07-06T08:20:34;4.18;;;1.40;;
72275;SDS011;61204;49.980;8.358;2022-07-06T08:23:03;2.67;;;1.23;;
72275;SDS011;61204;49.980;8.358;2022-07-06T08:25:30;4.82;;;1.35;;
72275;SDS011;61204;49.980;8.358;2022-07-06T08:27:56;5.00;;;1.33;;
72275;SDS011;61204;49.980;8.358;2022-07-06T08:30:22;6.43;;;1.30;;
72275;SDS011;61204;49.980;8.358;2022-07-06T08:32:47;4.55;;;1.27;;
72275;SDS011;61204;49.980;8.358;2022-07-06T08:35:13;3.92;;;1.30;;
72275;SDS011;61204;49.980;8.358;2022-07-06T08:37:39;1.83;;;1.10;;
72275;SDS011;61204;49.980;8.358;2022-07-06T08:40:05;2.63;;;1.20;;
72275;SDS011;61204;49.980;8.358;2022-07-06T08:42:34;2.60;;;1.33;;
72275;SDS011;61204;49.980;8.358;2022-07-06T08:45:02;2.72;;;1.10;;
72275;SDS011;61204;49.980;8.358;2022-07-06T08:47:32;2.65;;;1.00;;
72275;SDS011;61204;49.980;8.358;2022-07-06T08:50:02;4.95;;;1.20;;
72275;SDS011;61204;49.980;8.358;2022-07-06T08:52:31;2.20;;;1.20;;
72275;SDS011;61204;49.980;8.358;2022-07-06T08:54:58;4.28;;;1.25;;
72275;SDS011;61204;49.980;8.358;2022-07-06T08:57:24;5.45;;;1.20;;
72275;SDS011;61204;49.980;8.358;2022-07-06T08:59:52;3.25;;;1.17;;
72275;SDS011;61204;49.980;8.358;2022-07-06T09:02:17;4.78;;;1.10;;
72275;SDS011;61204;49.980;8.358;2022-07-06T09:04:44;2.67;;;1.00;;
72275;SDS011;61204;49.980;8.358;2022-07-06T09:07:15;3.30;;;1.25;;
72275;SDS011;61204;49.980;8.358;2022-07-06T09:09:42;2.45;;;1.08;;
72275;SDS011;61204;49.980;8.358;2022-07-06T09:12:13;5.90;;;1.00;;
72275;SDS011;61204;49.980;8.358;2022-07-06T09:14:38;2.35;;;1.30;;
72275;SDS011;61204;49.980;8.358;2022-07-06T09:17:05;1.90;;;1.08;;
72275;SDS011;61204;49.980;8.358;2022-07-06T09:19:32;3.38;;;1.27;;
72275;SDS011;61204;49.980;8.358;2022-07-06T09:22:00;4.95;;;1.35;;
72275;SDS011;61204;49.980;8.358;2022-07-06T09:24:28;2.42;;;1.08;;
72275;SDS011;61204;49.980;8.358;2022-07-06T09:26:56;4.55;;;0.95;;
72275;SDS011;61204;49.980;8.358;2022-07-06T09:29:30;4.50;;;1.10;;
72275;SDS011;61204;49.980;8.358;2022-07-06T09:32:00;2.42;;;1.02;;
72275;SDS011;61204;49.980;8.358;2022-07-06T09:34:39;2.95;;;1.10;;
72275;SDS011;61204;49.980;8.358;2022-07-06T09:37:12;2.88;;;1.00;;
72275;SDS011;61204;49.980;8.358;2022-07-06T09:39:42;3.83;;;1.20;;
72275;SDS011;61204;49.980;8.358;2022-07-06T09:42:10;2.55;;;0.90;;
72275;SDS011;61204;49.980;8.358;2022-07-06T09:44:36;2.80;;;1.00;;
72275;SDS011;61204;49.980;8.358;2022-07-06T09:47:07;2.22;;;1.05;;
72275;SDS011;61204;49.980;8.358;2022-07-06T09:49:36;1.80;;;0.98;;
72275;SDS011;61204;49.980;8.358;2022-07-06T09:52:07;2.10;;;0.90;;
72275;SDS011;61204;49.980;8.358;2022-07-06T09:54:36;4.22;;;1.23;;
72275;SDS011;61204;49.980;8.358;2022-07-06T09:57:05;1.33;;;0.80;;
72275;SDS011;61204;49.980;8.358;2022-07-06T09:59:33;4.95;;;1.50;;
72275;SDS011;61204;49.980;8.358;2022-07-06T10:02:02;3.38;;;1.50;;
72275;SDS011;61204;49.980;8.358;2022-07-06T10:04:31;3.05;;;1.92;;
72275;SDS011;61204;49.980;8.358;2022-07-06T10:06:58;4.05;;;2.28;;
72275;SDS011;61204;49.980;8.358;2022-07-06T10:09:26;4.68;;;1.90;;
72275;SDS011;61204;49.980;8.358;2022-07-06T10:11:55;4.75;;;1.98;;
72275;SDS011;61204;49.980;8.358;2022-07-06T10:14:27;3.50;;;1.92;;
72275;SDS011;61204;49.980;8.358;2022-07-06T10:16:56;2.55;;;1.85;;
72275;SDS011;61204;49.980;8.358;2022-07-06T10:19:26;2.63;;;2.00;;
72275;SDS011;61204;49.980;8.358;2022-07-06T10:21:59;3.83;;;1.92;;
72275;SDS011;61204;49.980;8.358;2022-07-06T10:24:29;3.25;;;1.85;;
72275;SDS011;61204;49.980;8.358;2022-07-06T10:26:59;2.38;;;1.60;;
72275;SDS011;61204;49.980;8.358;2022-07-06T10:29:25;4.60;;;1.92;;
72275;SDS011;61204;49.980;8.358;2022-07-06T10:31:51;4.90;;;1.90;;
72275;SDS011;61204;49.980;8.358;2022-07-06T10:34:19;2.80;;;1.58;;
72275;SDS011;61204;49.980;8.358;2022-07-06T10:36:48;4.10;;;2.00;;
72275;SDS011;61204;49.980;8.358;2022-07-06T10:39:31;2.60;;;1.80;;
72275;SDS011;61204;49.980;8.358;2022-07-06T10:45:06;5.53;;;1.80;;
72275;SDS011;61204;49.980;8.358;2022-07-06T10:47:34;4.22;;;2.22;;
72275;SDS011;61204;49.980;8.358;2022-07-06T10:50:01;3.65;;;1.80;;
72275;SDS011;61204;49.980;8.358;2022-07-06T10:55:43;1.98;;;1.33;;
72275;SDS011;61204;49.980;8.358;2022-07-06T10:58:13;3.13;;;1.50;;
72275;SDS011;61204;49.980;8.358;2022-07-06T11:00:55;3.88;;;1.40;;
72275;SDS011;61204;49.980;8.358;2022-07-06T11:06:14;3.95;;;1.67;;
72275;SDS011;61204;49.980;8.358;2022-07-06T11:08:50;2.22;;;1.40;;
72275;SDS011;61204;49.980;8.358;2022-07-06T11:22:07;3.20;;;1.20;;
72275;SDS011;61204;49.980;8.358;2022-07-06T11:24:36;1.90;;;1.13;;
72275;SDS011;61204;49.980;8.358;2022-07-06T11:27:05;3.05;;;1.48;;
72275;SDS011;61204;49.980;8.358;2022-07-06T11:29:32;3.78;;;1.38;;
72275;SDS011;61204;49.980;8.358;2022-07-06T11:32:00;2.33;;;0.75;;
72275;SDS011;61204;49.980;8.358;2022-07-06T11:34:32;2.00;;;1.08;;
72275;SDS011;61204;49.980;8.358;2022-07-06T11:37:05;2.83;;;1.10;;
72275;SDS011;61204;49.980;8.358;2022-07-06T11:39:44;1.27;;;0.90;;
72275;SDS011;61204;49.980;8.358;2022-07-06T11:42:14;4.28;;;1.38;;
72275;SDS011;61204;49.980;8.358;2022-07-06T11:44:43;2.55;;;1.00;;
72275;SDS011;61204;49.980;8.358;2022-07-06T11:47:10;2.20;;;1.00;;
72275;SDS011;61204;49.980;8.358;2022-07-06T11:49:38;3.63;;;1.05;;
72275;SDS011;61204;49.980;8.358;2022-07-06T11:52:06;4.63;;;1.42;;
72275;SDS011;61204;49.980;8.358;2022-07-06T11:54:35;3.92;;;1.00;;
72275;SDS011;61204;49.980;8.358;2022-07-06T11:57:01;2.05;;;1.00;;
72275;SDS011;61204;49.980;8.358;2022-07-06T11:59:29;4.75;;;1.00;;
72275;SDS011;61204;49.980;8.358;2022-07-06T12:04:36;4.65;;;1.27;;
72275;SDS011;61204;49.980;8.358;2022-07-06T12:07:08;2.72;;;1.00;;
72275;SDS011;61204;49.980;8.358;2022-07-06T12:09:44;2.13;;;1.30;;
72275;SDS011;61204;49.980;8.358;2022-07-06T12:12:12;3.42;;;1.00;;
72275;SDS011;61204;49.980;8.358;2022-07-06T12:14:41;3.13;;;1.13;;
72275;SDS011;61204;49.980;8.358;2022-07-06T12:17:08;2.17;;;0.90;;
72275;SDS011;61204;49.980;8.358;2022-07-06T12:19:40;2.35;;;1.20;;
72275;SDS011;61204;49.980;8.358;2022-07-06T12:22:07;3.90;;;1.00;;
72275;SDS011;61204;49.980;8.358;2022-07-06T12:24:35;2.70;;;1.10;;
72275;SDS011;61204;49.980;8.358;2022-07-06T12:27:12;3.90;;;1.10;;
72275;SDS011;61204;49.980;8.358;2022-07-06T12:29:41;1.83;;;1.05;;
72275;SDS011;61204;49.980;8.358;2022-07-06T12:32:13;3.05;;;1.27;;
72275;SDS011;61204;49.980;8.358;2022-07-06T12:34:47;2.05;;;1.10;;
72275;SDS011;61204;49.980;8.358;2022-07-06T12:37:30;2.05;;;0.70;;
72275;SDS011;61204;49.980;8.358;2022-07-06T12:39:55;2.83;;;1.00;;
72275;SDS011;61204;49.980;8.358;2022-07-06T12:42:21;9.45;;;1.33;;
72275;SDS011;61204;49.980;8.358;2022-07-06T12:44:47;3.33;;;0.90;;
72275;SDS011;61204;49.980;8.358;2022-07-06T12:47:17;2.90;;;1.15;;
72275;SDS011;61204;49.980;8.358;2022-07-06T12:49:49;2.35;;;1.10;;
72275;SDS011;61204;49.980;8.358;2022-07-06T12:52:35;2.25;;;1.05;;
72275;SDS011;61204;49.980;8.358;2022-07-06T12:55:01;5.07;;;0.80;;
72275;SDS011;61204;49.980;8.358;2022-07-06T12:57:42;1.08;;;0.98;;
72275;SDS011;61204;49.980;8.358;2022-07-06T13:00:11;2.10;;;1.02;;
72275;SDS011;61204;49.980;8.358;2022-07-06T13:02:38;4.45;;;1.10;;
72275;SDS011;61204;49.980;8.358;2022-07-06T13:07:36;6.05;;;1.30;;
72275;SDS011;61204;49.980;8.358;2022-07-06T13:10:09;4.15;;;1.42;;
72275;SDS011;61204;49.980;8.358;2022-07-06T13:12:39;2.80;;;1.13;;
72275;SDS011;61204;49.980;8.358;2022-07-06T13:15:06;2.20;;;1.10;;
72275;SDS011;61204;49.980;8.358;2022-07-06T13:17:35;2.20;;;1.02;;
72275;SDS011;61204;49.980;8.358;2022-07-06T13:20:04;2.92;;;1.02;;
72275;SDS011;61204;49.980;8.358;2022-07-06T13:22:34;2.55;;;1.00;;
72275;SDS011;61204;49.980;8.358;2022-07-06T13:25:00;4.13;;;1.30;;
72275;SDS011;61204;49.980;8.358;2022-07-06T13:27:27;6.22;;;1.48;;
72275;SDS011;61204;49.980;8.358;2022-07-06T13:29:53;2.92;;;1.33;;
72275;SDS011;61204;49.980;8.358;2022-07-06T13:32:19;3.42;;;1.30;;
72275;SDS011;61204;49.980;8.358;2022-07-06T13:34:46;2.13;;;1.00;;
72275;SDS011;61204;49.980;8.358;2022-07-06T13:37:13;1.33;;;0.82;;
72275;SDS011;61204;49.980;8.358;2022-07-06T13:39:38;4.43;;;1.30;;
72275;SDS011;61204;49.980;8.358;2022-07-06T13:42:04;2.15;;;1.00;;
72275;SDS011;61204;49.980;8.358;2022-07-06T13:44:30;3.30;;;0.90;;
72275;SDS011;61204;49.980;8.358;2022-07-06T13:46:56;2.35;;;1.15;;
72275;SDS011;61204;49.980;8.358;2022-07-06T13:49:21;1.40;;;1.00;;
72275;SDS011;61204;49.980;8.358;2022-07-06T13:51:47;2.50;;;0.90;;
72275;SDS011;61204;49.980;8.358;2022-07-06T13:54:13;5.70;;;1.10;;
72275;SDS011;61204;49.980;8.358;2022-07-06T13:56:39;3.97;;;1.17;;
72275;SDS011;61204;49.980;8.358;2022-07-06T13:59:05;5.43;;;0.80;;
72275;SDS011;61204;49.980;8.358;2022-07-06T14:01:31;2.42;;;0.75;;
72275;SDS011;61204;49.980;8.358;2022-07-06T14:03:57;2.38;;;0.90;;
72275;SDS011;61204;49.980;8.358;2022-07-06T14:06:23;2.38;;;1.10;;
72275;SDS011;61204;49.980;8.358;2022-07-06T14:08:49;2.45;;;1.00;;
72275;SDS011;61204;49.980;8.358;2022-07-06T14:11:14;1.75;;;1.00;;
72275;SDS011;61204;49.980;8.358;2022-07-06T14:13:40;3.05;;;0.90;;
72275;SDS011;61204;49.980;8.358;2022-07-06T14:16:07;3.47;;;0.98;;
72275;SDS011;61204;49.980;8.358;2022-07-06T14:18:34;4.80;;;0.90;;
72275;SDS011;61204;49.980;8.358;2022-07-06T14:21:00;1.45;;;1.00;;
72275;SDS011;61204;49.980;8.358;2022-07-06T14:23:25;1.58;;;0.82;;
72275;SDS011;61204;49.980;8.358;2022-07-06T14:25:54;2.65;;;1.00;;
72275;SDS011;61204;49.980;8.358;2022-07-06T14:28:21;2.40;;;0.93;;
72275;SDS011;61204;49.980;8.358;2022-07-06T14:30:46;5.68;;;1.10;;
72275;SDS011;61204;49.980;8.358;2022-07-06T14:33:14;5.45;;;1.40;;
72275;SDS011;61204;49.980;8.358;2022-07-06T14:35:50;2.13;;;0.85;;
72275;SDS011;61204;49.980;8.358;2022-07-06T14:38:16;3.53;;;0.80;;
72275;SDS011;61204;49.980;8.358;2022-07-06T14:40:43;3.22;;;0.95;;
72275;SDS011;61204;49.980;8.358;2022-07-06T14:43:10;2.53;;;1.10;;
72275;SDS011;61204;49.980;8.358;2022-07-06T14:45:36;3.55;;;1.30;;
72275;SDS011;61204;49.980;8.358;2022-07-06T14:48:02;2.65;;;1.00;;
72275;SDS011;61204;49.980;8.358;2022-07-06T14:50:30;2.08;;;1.05;;
72275;SDS011;61204;49.980;8.358;2022-07-06T14:52:56;1.85;;;0.90;;
72275;SDS011;61204;49.980;8.358;2022-07-06T14:55:22;1.65;;;1.00;;
72275;SDS011;61204;49.980;8.358;2022-07-06T14:57:49;2.58;;;1.20;;
72275;SDS011;61204;49.980;8.358;2022-07-06T15:00:15;6.10;;;1.10;;
72275;SDS011;61204;49.980;8.358;2022-07-06T15:02:42;1.70;;;1.00;;
72275;SDS011;61204;49.980;8.358;2022-07-06T15:05:08;1.85;;;1.10;;
72275;SDS011;61204;49.980;8.358;2022-07-06T15:07:36;3.03;;;1.27;;
72275;SDS011;61204;49.980;8.358;2022-07-06T15:10:02;2.50;;;1.10;;
72275;SDS011;61204;49.980;8.358;2022-07-06T15:12:32;3.90;;;1.25;;
72275;SDS011;61204;49.980;8.358;2022-07-06T15:14:58;9.63;;;1.73;;
72275;SDS011;61204;49.980;8.358;2022-07-06T15:17:24;5.18;;;1.77;;